Time;durP1;ratioP1;P1;durP2;ratioP2;P2;SDS_P1;SDS_P2;PMS_P1;PMS_P2;Temp;Humidity;BMP_temperature;BMP_pressure;BME280_temperature;BME280_humidity;BME280_pressure;Samples;Min_cycle;Max_cycle;Signal;HPM_P1;HPM_P2
2022/10/01 00:00:19;;;;;;;0.00;0.00;;;;;;;9.42;97.28;98377.50;4584192;31;20239;-56
2022/10/01 00:02:46;;;;;;;0.00;0.00;;;;;;;9.54;100.00;98378.06;4582106;31;20506;-56
2022/10/01 00:05:12;;;;;;;0.00;0.00;;;;;;;9.51;97.99;98380.97;4586990;31;20308;-55
2022/10/01 00:07:40;;;;;;;0.00;0.00;;;;;;;9.50;96.97;98379.34;4590899;30;20243;-55
2022/10/01 00:10:07;;;;;;;0.00;0.00;;;;;;;9.46;96.63;98391.88;4623382;30;20250;-56
2022/10/01 00:12:34;;;;;;;0.00;0.00;;;;;;;9.34;97.36;98390.44;4664050;30;20285;-56
2022/10/01 00:15:04;;;;;;;0.00;0.00;;;;;;;9.17;97.62;98385.06;4679765;30;23607;-55
2022/10/01 00:17:30;;;;;;;0.00;0.00;;;;;;;9.19;97.84;98383.16;4722444;30;20243;-53
2022/10/01 00:19:57;;;;;;;0.00;0.00;;;;;;;9.27;96.25;98396.25;4715060;30;20272;-55
2022/10/01 00:24:35;;;;;;;0.00;0.00;;;;;;;9.21;97.86;98396.00;5010004;27;88797;-53
2022/10/01 00:27:01;;;;;;;0.00;0.00;;;;;;;9.30;95.87;98387.31;5010757;28;20260;-54
2022/10/01 00:29:28;;;;;;;0.00;0.00;;;;;;;9.23;96.41;98388.88;5028849;28;20255;-54
2022/10/01 00:31:56;;;;;;;0.00;0.00;;;;;;;9.26;95.87;98392.00;5028394;28;20226;-54
2022/10/01 00:34:22;;;;;;;0.00;0.00;;;;;;;9.35;95.22;98392.88;5031545;28;20267;-55
2022/10/01 00:36:49;;;;;;;0.00;0.00;;;;;;;9.66;92.14;98394.28;5028410;28;20714;-54
2022/10/01 00:39:15;;;;;;;0.00;0.00;;;;;;;9.61;92.84;98405.16;5034801;28;20232;-53
2022/10/01 00:41:43;;;;;;;0.00;0.00;;;;;;;9.64;92.74;98401.44;5029746;28;20227;-54
2022/10/01 00:44:31;;;;;;;0.00;0.00;;;;;;;9.69;91.86;98397.41;5030601;28;20289;-54
2022/10/01 00:47:04;;;;;;;0.00;0.00;;;;;;;9.63;92.31;98391.97;5029641;28;20230;-55
2022/10/01 00:49:34;;;;;;;0.00;0.00;;;;;;;9.62;92.88;98388.56;5033817;28;20334;-52
2022/10/01 00:52:04;;;;;;;0.00;0.00;;;;;;;9.63;91.64;98382.38;5029646;28;20234;-54
2022/10/01 00:54:36;;;;;;;0.00;0.00;;;;;;;9.68;90.48;98379.31;5033458;28;20288;-54
2022/10/01 00:57:06;;;;;;;0.00;0.00;;;;;;;9.77;88.84;98385.44;5029928;28;20249;-54
2022/10/01 00:59:34;;;;;;;0.00;0.00;;;;;;;9.85;88.29;98380.28;5031051;28;20282;-53
2022/10/01 01:02:00;;;;;;;0.00;0.00;;;;;;;9.90;87.05;98380.63;5027049;28;21560;-53
2022/10/01 01:04:27;;;;;;;0.00;0.00;;;;;;;10.08;84.76;98374.53;5029243;28;20254;-53
2022/10/01 01:06:57;;;;;;;0.00;0.00;;;;;;;10.06;85.63;98373.91;5027723;28;20263;-54
2022/10/01 01:12:16;;;;;;;0.00;0.00;;;;;;;10.31;86.82;98362.59;5683795;23;20310;-54
2022/10/01 01:14:54;;;;;;;0.00;0.00;;;;;;;10.21;85.67;98363.69;4988809;28;20742;-52
2022/10/01 01:17:25;;;;;;;0.00;0.00;;;;;;;10.23;85.30;98364.38;5017294;28;20264;-51
2022/10/01 01:20:10;;;;;;;0.00;0.00;;;;;;;10.30;79.60;98358.34;5018463;28;20293;-52
2022/10/01 01:22:45;;;;;;;0.00;0.00;;;;;;;10.21;81.11;98355.88;5021059;28;20240;-51
2022/10/01 01:25:18;;;;;;;0.00;0.00;;;;;;;10.16;82.52;98340.69;5013145;23;20294;-55
2022/10/01 01:27:50;;;;;;;0.00;0.00;;;;;;;10.13;80.81;98336.59;5013610;28;20310;-52
2022/10/01 01:30:19;;;;;;;0.00;0.00;;;;;;;10.21;80.88;98342.84;5020521;28;20237;-50
2022/10/01 01:32:51;;;;;;;0.00;0.00;;;;;;;10.19;81.63;98340.38;5001732;28;20245;-54
2022/10/01 01:35:23;;;;;;;0.00;0.00;;;;;;;10.18;81.43;98331.72;4991556;28;20234;-52
2022/10/01 01:37:53;;;;;;;0.00;0.00;;;;;;;10.18;80.78;98334.34;4985408;28;20726;-52
2022/10/01 01:40:21;;;;;;;0.00;0.00;;;;;;;10.23;80.10;98327.84;4987452;28;20684;-52
2022/10/01 01:42:50;;;;;;;0.00;0.00;;;;;;;10.30;80.30;98315.81;4984832;28;20234;-52
2022/10/01 01:45:22;;;;;;;0.00;0.00;;;;;;;10.22;80.44;98315.78;4987726;28;20811;-54
2022/10/01 01:47:54;;;;;;;0.00;0.00;;;;;;;10.22;80.16;98310.56;4984386;28;20226;-54
2022/10/01 01:50:23;;;;;;;0.00;0.00;;;;;;;10.37;74.96;98308.16;4987009;28;20250;-52
2022/10/01 01:52:50;;;;;;;0.00;0.00;;;;;;;10.39;76.60;98303.59;4982652;28;20716;-55
2022/10/01 01:55:17;;;;;;;0.00;0.00;;;;;;;10.42;74.87;98305.94;4986512;28;20257;-53
2022/10/01 01:57:44;;;;;;;0.00;0.00;;;;;;;10.37;76.72;98302.94;4983307;28;20224;-52
2022/10/01 02:00:13;;;;;;;0.00;0.00;;;;;;;10.38;76.85;98310.63;4987113;28;20287;-54
2022/10/01 02:02:47;;;;;;;0.00;0.00;;;;;;;10.27;77.24;98298.66;4986599;28;20930;-55
2022/10/01 02:05:18;;;;;;;0.00;0.00;;;;;;;10.21;78.35;98303.72;4983997;28;20475;-52
2022/10/01 02:08:04;;;;;;;0.00;0.00;;;;;;;10.26;77.05;98304.06;4983755;28;20226;-55
2022/10/01 02:10:39;;;;;;;0.00;0.00;;;;;;;10.23;76.05;98302.56;4986724;28;20260;-56
2022/10/01 02:13:22;;;;;;;0.00;0.00;;;;;;;10.40;73.85;98307.88;4982855;28;20242;-52
2022/10/01 02:16:00;;;;;;;0.00;0.00;;;;;;;10.41;74.80;98302.53;4983325;28;20237;-52
2022/10/01 02:18:33;;;;;;;0.00;0.00;;;;;;;10.33;75.27;98292.81;4986829;28;20225;-51
2022/10/01 02:21:08;;;;;;;0.00;0.00;;;;;;;10.31;74.40;98292.16;4983149;28;20241;-52
2022/10/01 02:23:42;;;;;;;0.00;0.00;;;;;;;10.32;74.98;98279.94;4986246;28;20249;-53
2022/10/01 02:26:14;;;;;;;0.00;0.00;;;;;;;10.32;75.19;98282.56;4983611;28;20362;-56
2022/10/01 02:28:44;;;;;;;0.00;0.00;;;;;;;10.39;73.62;98280.97;4984264;28;20765;-54
2022/10/01 02:31:12;;;;;;;0.00;0.00;;;;;;;10.42;74.43;98279.84;4985437;28;20238;-54
2022/10/01 02:33:42;;;;;;;0.00;0.00;;;;;;;10.44;73.64;98273.50;4968484;28;20652;-53
2022/10/01 02:36:12;;;;;;;0.00;0.00;;;;;;;10.44;74.22;98273.50;4983950;28;20703;-51
2022/10/01 02:38:42;;;;;;;0.00;0.00;;;;;;;10.47;73.57;98267.97;4986142;28;20701;-54
2022/10/01 02:41:13;;;;;;;0.00;0.00;;;;;;;10.57;72.80;98262.59;4981652;28;20398;-51
2022/10/01 02:43:50;;;;;;;0.00;0.00;;;;;;;10.61;73.52;98265.69;4987211;28;20235;-54
2022/10/01 02:46:26;;;;;;;0.00;0.00;;;;;;;10.56;74.47;98263.56;4984142;28;20256;-54
2022/10/01 02:48:55;;;;;;;0.00;0.00;;;;;;;10.55;74.04;98271.56;4984539;28;20268;-52
2022/10/01 02:51:31;;;;;;;0.00;0.00;;;;;;;10.51;73.49;98278.88;4986299;28;20253;-54
2022/10/01 02:54:07;;;;;;;0.00;0.00;;;;;;;10.52;73.50;98280.53;4984811;28;20589;-51
2022/10/01 02:59:21;;;;;;;0.00;0.00;;;;;;;10.56;73.71;98281.84;4985331;28;20239;-52
2022/10/01 03:01:47;;;;;;;0.00;0.00;;;;;;;10.51;74.13;98283.31;4983262;28;20241;-54
2022/10/01 03:04:17;;;;;;;0.00;0.00;;;;;;;10.52;73.44;98290.97;4986969;28;20751;-53
2022/10/01 03:06:43;;;;;;;0.00;0.00;;;;;;;10.48;74.24;98285.25;4983536;28;20283;-52
2022/10/01 03:09:10;;;;;;;0.00;0.00;;;;;;;10.59;72.11;98275.50;4986566;28;20704;-52
2022/10/01 03:11:36;;;;;;;0.00;0.00;;;;;;;10.73;71.73;98285.28;4986914;28;20308;-52
2022/10/01 03:14:05;;;;;;;0.00;0.00;;;;;;;10.70;73.26;98277.78;4984316;28;20232;-52
2022/10/01 03:16:32;;;;;;;0.00;0.00;;;;;;;10.68;73.59;98274.50;4986572;28;20244;-54
2022/10/01 03:18:58;;;;;;;0.00;0.00;;;;;;;10.70;73.77;98269.16;4983608;28;20228;-55
2022/10/01 03:21:26;;;;;;;0.00;0.00;;;;;;;10.62;74.61;98267.31;4986316;28;20240;-51
2022/10/01 03:23:53;;;;;;;0.00;0.00;;;;;;;10.70;73.74;98269.94;4982435;28;20547;-54
2022/10/01 03:26:19;;;;;;;0.00;0.00;;;;;;;10.73;73.22;98277.47;4986468;28;20249;-54
2022/10/01 03:28:46;;;;;;;0.00;0.00;;;;;;;10.73;73.54;98268.84;4983666;28;20237;-53
2022/10/01 03:31:12;;;;;;;0.00;0.00;;;;;;;10.66;74.97;98266.03;4985914;28;20241;-52
2022/10/01 03:33:40;;;;;;;0.00;0.00;;;;;;;10.66;73.12;98262.63;4986281;28;20229;-55
2022/10/01 03:36:06;;;;;;;0.00;0.00;;;;;;;10.67;72.75;98257.22;4983306;28;20226;-52
2022/10/01 03:38:34;;;;;;;0.00;0.00;;;;;;;10.71;72.42;98261.13;4986335;28;20313;-54
2022/10/01 03:41:01;;;;;;;0.00;0.00;;;;;;;10.73;72.71;98256.56;4983313;28;20254;-52
2022/10/01 03:43:29;;;;;;;0.00;0.00;;;;;;;10.77;72.28;98262.31;4985956;28;20286;-53
2022/10/01 03:45:55;;;;;;;0.00;0.00;;;;;;;10.82;71.69;98249.59;4966860;28;20236;-52
2022/10/01 03:48:22;;;;;;;0.00;0.00;;;;;;;10.95;69.57;98243.88;4986790;28;20333;-52
2022/10/01 03:50:53;;;;;;;0.00;0.00;;;;;;;10.91;70.07;98248.63;4983154;28;20234;-54
2022/10/01 03:53:20;;;;;;;0.00;0.00;;;;;;;10.89;71.21;98239.31;4986175;28;20229;-52
2022/10/01 03:55:48;;;;;;;0.00;0.00;;;;;;;10.88;71.65;98238.50;4983148;28;20736;-52
2022/10/01 03:58:14;;;;;;;0.00;0.00;;;;;;;10.82;71.78;98248.75;4985773;28;20235;-53
2022/10/01 04:00:41;;;;;;;0.00;0.00;;;;;;;10.77;72.49;98244.03;4984682;28;20293;-53
2022/10/01 04:03:08;;;;;;;0.00;0.00;;;;;;;10.86;70.17;98235.22;4984243;28;20233;-52
2022/10/01 04:05:34;;;;;;;0.00;0.00;;;;;;;10.86;71.02;98229.19;4985524;28;20229;-52
2022/10/01 04:08:01;;;;;;;0.00;0.00;;;;;;;10.96;69.73;98219.41;4982424;28;21364;-54
2022/10/01 04:10:27;;;;;;;0.00;0.00;;;;;;;11.00;69.57;98236.38;4985492;28;20240;-54
2022/10/01 04:12:56;;;;;;;0.00;0.00;;;;;;;11.01;69.68;98234.59;4981758;28;20269;-51
2022/10/01 04:15:23;;;;;;;0.00;0.00;;;;;;;11.03;69.91;98236.03;4985126;28;20718;-54
2022/10/01 04:17:50;;;;;;;0.00;0.00;;;;;;;11.15;68.73;98235.72;4982522;28;20637;-52
2022/10/01 04:20:17;;;;;;;0.00;0.00;;;;;;;11.13;69.08;98232.47;4985266;28;20234;-52
2022/10/01 04:22:45;;;;;;;0.00;0.00;;;;;;;11.19;69.52;98229.19;4982063;28;20304;-51
2022/10/01 04:25:12;;;;;;;0.00;0.00;;;;;;;11.12;69.68;98231.66;4983663;28;20245;-53
2022/10/01 04:27:39;;;;;;;0.00;0.00;;;;;;;11.12;68.98;98238.66;4983285;28;20312;-52
2022/10/01 04:30:10;;;;;;;0.00;0.00;;;;;;;11.13;69.03;98253.34;4980610;28;20237;-51
2022/10/01 04:32:37;;;;;;;0.00;0.00;;;;;;;11.16;68.77;98251.22;4975391;28;20281;-54
2022/10/01 04:35:06;;;;;;;0.00;0.00;;;;;;;11.21;67.81;98232.44;4981322;28;20246;-54
2022/10/01 04:37:32;;;;;;;0.00;0.00;;;;;;;11.20;67.93;98242.06;4984111;28;20712;-55
2022/10/01 04:39:59;;;;;;;0.00;0.00;;;;;;;11.25;68.30;98248.59;4982307;28;20265;-54
2022/10/01 04:42:25;;;;;;;0.00;0.00;;;;;;;11.20;68.65;98231.63;4985269;28;20293;-54
2022/10/01 04:44:51;;;;;;;0.00;0.00;;;;;;;11.19;70.51;98243.06;4981850;28;20292;-52
2022/10/01 04:47:19;;;;;;;0.00;0.00;;;;;;;11.18;70.73;98240.63;4984814;28;20288;-54
2022/10/01 04:49:46;;;;;;;0.00;0.00;;;;;;;11.10;71.20;98233.63;4980523;28;20288;-52
2022/10/01 04:52:12;;;;;;;0.00;0.00;;;;;;;10.99;74.10;98229.50;4985613;28;20244;-52
2022/10/01 04:54:39;;;;;;;0.00;0.00;;;;;;;10.88;76.63;98225.44;4985336;28;20230;-53
2022/10/01 04:57:05;;;;;;;0.00;0.00;;;;;;;10.79;77.33;98221.19;4981214;28;20260;-55
2022/10/01 04:59:32;;;;;;;0.00;0.00;;;;;;;10.66;79.56;98229.47;4985639;28;20934;-54
2022/10/01 05:01:59;;;;;;;0.00;0.00;;;;;;;10.61;80.05;98235.19;4983228;28;20241;-54
2022/10/01 05:04:27;;;;;;;0.00;0.00;;;;;;;10.55;82.72;98225.41;4985421;28;20268;-52
2022/10/01 05:06:53;;;;;;;0.00;0.00;;;;;;;10.38;84.80;98221.91;4981116;28;20636;-52
2022/10/01 05:09:20;;;;;;;0.00;0.00;;;;;;;10.37;83.52;98216.84;4985225;28;20714;-55
2022/10/01 05:11:46;;;;;;;0.00;0.00;;;;;;;10.28;86.65;98219.44;4985632;28;20238;-52
2022/10/01 05:14:14;;;;;;;0.00;0.00;;;;;;;10.22;88.13;98208.84;4988925;28;20245;-55
2022/10/01 05:16:40;;;;;;;0.00;0.00;;;;;;;10.15;87.06;98206.84;4988543;28;20344;-53
2022/10/01 05:19:07;;;;;;;0.00;0.00;;;;;;;10.10;87.64;98197.84;4974275;28;20665;-53
2022/10/01 05:21:36;;;;;;;0.00;0.00;;;;;;;10.03;90.41;98195.09;4988468;28;20300;-55
2022/10/01 05:24:04;;;;;;;0.00;0.00;;;;;;;10.06;89.21;98194.75;4985480;28;20246;-52
2022/10/01 05:26:31;;;;;;;0.00;0.00;;;;;;;10.01;89.35;98189.22;4988303;28;20233;-52
2022/10/01 05:28:58;;;;;;;0.00;0.00;;;;;;;9.97;90.79;98187.88;4984778;28;20231;-52
2022/10/01 05:31:25;;;;;;;0.00;0.00;;;;;;;9.95;89.46;98190.66;4987987;28;20223;-52
2022/10/01 05:33:51;;;;;;;0.00;0.00;;;;;;;9.95;90.76;98180.22;4986143;28;21003;-55
2022/10/01 05:36:18;;;;;;;0.00;0.00;;;;;;;9.91;91.07;98186.75;4989385;28;20308;-54
2022/10/01 05:38:47;;;;;;;0.00;0.00;;;;;;;9.95;91.44;98189.84;4985587;28;20298;-55
2022/10/01 05:41:15;;;;;;;0.00;0.00;;;;;;;9.91;91.21;98178.91;4988047;28;20296;-54
2022/10/01 05:43:42;;;;;;;0.00;0.00;;;;;;;9.92;91.37;98177.13;4988475;28;20229;-54
2022/10/01 05:46:09;;;;;;;0.00;0.00;;;;;;;9.89;93.60;98165.22;4985694;28;20289;-55
2022/10/01 05:48:36;;;;;;;0.00;0.00;;;;;;;9.89;93.28;98171.25;4988315;28;20232;-56
2022/10/01 05:51:05;;;;;;;0.00;0.00;;;;;;;9.89;92.46;98145.16;4986208;28;20235;-55
2022/10/01 05:53:31;;;;;;;0.00;0.00;;;;;;;9.93;93.16;98144.84;4988656;28;20229;-56
2022/10/01 05:56:01;;;;;;;0.00;0.00;;;;;;;9.94;92.09;98136.06;4984839;28;20245;-56
2022/10/01 05:58:27;;;;;;;0.00;0.00;;;;;;;9.96;92.44;98149.75;4988486;28;20225;-56
2022/10/01 06:00:55;;;;;;;0.00;0.00;;;;;;;9.97;94.50;98127.91;4985218;28;20292;-52
2022/10/01 06:03:22;;;;;;;0.00;0.00;;;;;;;9.93;94.36;98121.38;4969916;28;20229;-52
2022/10/01 06:05:48;;;;;;;0.00;0.00;;;;;;;9.97;92.15;98117.50;4984840;28;20237;-54
2022/10/01 06:08:15;;;;;;;0.00;0.00;;;;;;;9.98;91.07;98142.59;4987924;28;20261;-52
2022/10/01 06:10:41;;;;;;;0.00;0.00;;;;;;;10.02;92.92;98134.31;4987864;28;20241;-52
2022/10/01 06:13:10;;;;;;;0.00;0.00;;;;;;;10.05;91.92;98138.38;4984854;28;20245;-54
2022/10/01 06:15:38;;;;;;;0.00;0.00;;;;;;;10.01;92.61;98142.28;4987515;28;20230;-54
2022/10/01 06:18:06;;;;;;;0.00;0.00;;;;;;;10.10;89.66;98159.56;4984898;28;20702;-52
2022/10/01 06:20:33;;;;;;;0.00;0.00;;;;;;;10.15;91.82;98151.25;4985552;28;20241;-54
2022/10/01 06:23:00;;;;;;;0.00;0.00;;;;;;;10.11;92.03;98152.56;4984407;28;20246;-52
2022/10/01 06:25:29;;;;;;;0.00;0.00;;;;;;;10.13;92.04;98154.03;4987372;28;20269;-52
2022/10/01 06:27:58;;;;;;;0.00;0.00;;;;;;;10.15;92.57;98149.47;4985183;28;20699;-54
2022/10/01 06:30:26;;;;;;;0.00;0.00;;;;;;;10.15;93.56;98146.88;4985647;28;20233;-52
2022/10/01 06:32:53;;;;;;;0.00;0.00;;;;;;;10.17;91.94;98167.56;4983753;28;20282;-53
2022/10/01 06:35:20;;;;;;;0.00;0.00;;;;;;;10.18;92.88;98167.41;4987055;28;20234;-52
2022/10/01 06:37:46;;;;;;;0.00;0.00;;;;;;;10.14;93.85;98176.53;4984879;28;20997;-54
2022/10/01 06:40:13;;;;;;;0.00;0.00;;;;;;;10.12;93.41;98167.22;4987197;28;20238;-52
2022/10/01 06:42:40;;;;;;;0.00;0.00;;;;;;;10.15;93.39;98178.16;4986972;28;20238;-51
2022/10/01 06:45:07;;;;;;;0.00;0.00;;;;;;;10.12;93.77;98178.47;4983221;28;20583;-51
2022/10/01 06:47:36;;;;;;;0.00;0.00;;;;;;;10.16;92.03;98163.31;4987322;28;20704;-52
2022/10/01 06:50:03;;;;;;;0.00;0.00;;;;;;;10.20;92.11;98159.41;4984688;28;20232;-55
2022/10/01 06:55:20;;;;;;;0.00;0.00;;;;;;;10.10;93.49;98156.13;4963593;28;20283;-55
2022/10/01 06:57:49;;;;;;;0.00;0.00;;;;;;;10.03;94.94;98158.56;4982680;28;21049;-54
2022/10/01 07:00:15;;;;;;;0.00;0.00;;;;;;;10.05;94.27;98164.44;4986667;28;20237;-53
2022/10/01 07:02:43;;;;;;;0.00;0.00;;;;;;;10.08;94.81;98142.44;4983622;28;20279;-53
2022/10/01 07:05:11;;;;;;;0.00;0.00;;;;;;;10.06;95.06;98136.59;4986786;28;20308;-54
2022/10/01 07:07:38;;;;;;;0.00;0.00;;;;;;;9.99;96.38;98144.22;4986741;28;20235;-55
2022/10/01 07:10:07;;;;;;;0.00;0.00;;;;;;;10.02;95.27;98136.91;4951625;28;20237;-53
2022/10/01 07:12:34;;;;;;;0.00;0.00;;;;;;;10.04;93.04;98149.78;4986899;28;20285;-51
2022/10/01 07:15:00;;;;;;;0.00;0.00;;;;;;;10.06;93.32;98133.97;4983900;28;20238;-53
2022/10/01 07:17:27;;;;;;;0.00;0.00;;;;;;;10.05;95.86;98140.97;4986752;28;20238;-54
2022/10/01 07:19:55;;;;;;;0.00;0.00;;;;;;;10.09;93.33;98137.06;4983958;28;20230;-52
2022/10/01 07:22:23;;;;;;;0.00;0.00;;;;;;;10.03;95.62;98142.94;4986164;28;20696;-54
2022/10/01 07:24:50;;;;;;;0.00;0.00;;;;;;;10.05;96.90;98138.38;5166691;22;20196;-52
2022/10/01 07:27:17;;;;;;;0.00;0.00;;;;;;;10.12;95.01;98139.38;5015782;28;20770;-54
2022/10/01 07:29:44;;;;;;;0.00;0.00;;;;;;;10.12;94.55;98136.75;5011541;28;20228;-51
2022/10/01 07:32:11;;;;;;;0.00;0.00;;;;;;;10.11;96.25;98160.38;5002282;28;20288;-52
2022/10/01 07:34:39;;;;;;;0.00;0.00;;;;;;;10.11;97.14;98150.78;4989279;28;20237;-53
2022/10/01 07:37:08;;;;;;;0.00;0.00;;;;;;;10.15;95.44;98159.06;4983921;28;20287;-51
2022/10/01 07:39:35;;;;;;;0.00;0.00;;;;;;;10.13;98.15;98172.28;4989398;28;20233;-52
2022/10/01 07:42:02;;;;;;;0.00;0.00;;;;;;;10.10;95.67;98164.78;4985878;28;20237;-52
2022/10/01 07:44:29;;;;;;;0.00;0.00;;;;;;;10.11;95.63;98156.00;4988026;28;21137;-52
2022/10/01 07:46:56;;;;;;;0.00;0.00;;;;;;;10.14;97.45;98158.28;4985728;28;20324;-53
2022/10/01 07:49:23;;;;;;;0.00;0.00;;;;;;;10.16;96.80;98171.16;4988706;28;20227;-51
2022/10/01 07:51:51;;;;;;;0.00;0.00;;;;;;;10.22;97.08;98154.06;4986546;28;20238;-51
2022/10/01 07:54:20;;;;;;;0.00;0.00;;;;;;;10.16;97.48;98173.75;4957322;28;20237;-53
2022/10/01 07:56:47;;;;;;;0.00;0.00;;;;;;;10.18;97.80;98166.59;4984384;28;20235;-53
2022/10/01 07:59:14;;;;;;;0.00;0.00;;;;;;;10.21;99.04;98188.94;4988266;28;20690;-52
2022/10/01 08:01:41;;;;;;;0.00;0.00;;;;;;;10.19;99.33;98187.31;4988403;28;20559;-54
2022/10/01 08:06:50;;;;;;;0.00;0.00;;;;;;;10.28;98.74;98171.69;4957354;28;20223;-53
2022/10/01 08:09:16;;;;;;;0.00;0.00;;;;;;;10.24;99.61;98173.78;4988517;28;20240;-51
2022/10/01 08:11:52;;;;;;;0.00;0.00;;;;;;;10.33;99.05;98166.78;4983663;28;20250;-52
2022/10/01 08:14:19;;;;;;;0.00;0.00;;;;;;;10.42;97.40;98162.44;4989091;28;20669;-52
2022/10/01 08:16:46;;;;;;;0.00;0.00;;;;;;;10.49;97.74;98173.84;4985750;28;20228;-53
2022/10/01 08:19:13;;;;;;;0.00;0.00;;;;;;;10.47;97.83;98174.03;4987039;28;20288;-51
2022/10/01 08:21:40;;;;;;;0.00;0.00;;;;;;;10.43;98.30;98192.75;4987833;28;20243;-51
2022/10/01 08:24:07;;;;;;;0.00;0.00;;;;;;;10.48;96.74;98174.81;4985181;28;20283;-51
2022/10/01 08:26:34;;;;;;;0.00;0.00;;;;;;;10.49;98.02;98192.13;5002907;23;20233;-54
2022/10/01 08:29:01;;;;;;;0.00;0.00;;;;;;;10.55;99.69;98175.00;4984819;28;20285;-54
2022/10/01 08:31:28;;;;;;;0.00;0.00;;;;;;;10.58;97.35;98185.13;4982747;28;20238;-51
2022/10/01 08:33:55;;;;;;;0.00;0.00;;;;;;;10.50;98.05;98180.69;4964652;28;20238;-55
2022/10/01 08:36:22;;;;;;;0.00;0.00;;;;;;;10.51;98.23;98198.00;4967537;28;20637;-54
2022/10/01 08:38:49;;;;;;;0.00;0.00;;;;;;;10.48;100.00;98195.72;4962142;28;20234;-54
2022/10/01 08:41:28;;;;;;;0.00;0.00;;;;;;;10.52;99.21;98204.03;4964951;28;20237;-54
2022/10/01 08:44:01;;;;;;;0.00;0.00;;;;;;;10.56;99.77;98218.41;4946960;28;20248;-54
2022/10/01 08:46:33;;;;;;;0.00;0.00;;;;;;;10.45;100.00;98216.91;4973034;28;20235;-53
2022/10/01 08:49:07;;;;;;;0.00;0.00;;;;;;;10.52;99.13;98217.91;4968507;28;20289;-52
2022/10/01 08:51:39;;;;;;;0.00;0.00;;;;;;;10.46;100.00;98206.31;4971556;28;20239;-53
2022/10/01 08:54:21;;;;;;;0.00;0.00;;;;;;;10.47;100.00;98221.00;4967343;28;20240;-54
2022/10/01 08:56:48;;;;;;;0.00;0.00;;;;;;;10.40;100.00;98214.78;4968464;28;20235;-52
2022/10/01 08:59:28;;;;;;;0.00;0.00;;;;;;;10.43;100.00;98214.47;4971952;28;20726;-54
2022/10/01 09:01:59;;;;;;;0.00;0.00;;;;;;;10.41;100.00;98220.81;4950297;28;20324;-55
2022/10/01 09:04:26;;;;;;;0.00;0.00;;;;;;;10.44;100.00;98221.31;4968394;28;20237;-54
2022/10/01 09:07:02;;;;;;;0.00;0.00;;;;;;;10.42;100.00;98235.47;4949224;28;20251;-52
2022/10/01 09:09:40;;;;;;;0.00;0.00;;;;;;;10.43;100.00;98247.56;4971205;28;20225;-55
2022/10/01 09:12:22;;;;;;;0.00;0.00;;;;;;;10.49;100.00;98244.31;4967319;28;20315;-52
2022/10/01 09:15:03;;;;;;;0.00;0.00;;;;;;;10.54;100.00;98236.00;4969383;28;20323;-55
2022/10/01 09:17:46;;;;;;;0.00;0.00;;;;;;;10.53;100.00;98237.00;4970023;28;20289;-55
2022/10/01 09:20:24;;;;;;;0.00;0.00;;;;;;;10.55;100.00;98256.72;4967824;28;20984;-55
2022/10/01 09:23:04;;;;;;;0.00;0.00;;;;;;;10.42;100.00;98256.34;4965470;28;20247;-57
2022/10/01 09:25:34;;;;;;;0.00;0.00;;;;;;;10.41;100.00;98260.78;4972046;28;20300;-54
2022/10/01 09:28:11;;;;;;;0.00;0.00;;;;;;;10.42;100.00;98238.94;4968400;28;20243;-55
2022/10/01 09:30:42;;;;;;;0.00;0.00;;;;;;;10.49;100.00;98239.09;4971044;28;20256;-55
2022/10/01 09:33:15;;;;;;;0.00;0.00;;;;;;;10.49;100.00;98233.88;4967425;28;20238;-55
2022/10/01 09:35:45;;;;;;;0.00;0.00;;;;;;;10.51;100.00;98265.84;4969775;28;20633;-53
2022/10/01 09:38:18;;;;;;;0.00;0.00;;;;;;;10.60;100.00;98259.66;4969616;28;20224;-55
2022/10/01 09:40:53;;;;;;;0.00;0.00;;;;;;;10.55;100.00;98258.53;4967564;28;20233;-55
2022/10/01 09:43:22;;;;;;;0.00;0.00;;;;;;;10.56;100.00;98260.97;4971663;28;20240;-55
2022/10/01 09:45:49;;;;;;;0.00;0.00;;;;;;;10.60;100.00;98245.81;4967952;28;20720;-55
2022/10/01 09:48:25;;;;;;;0.00;0.00;;;;;;;10.56;100.00;98257.56;4970994;28;20240;-55
2022/10/01 09:50:57;;;;;;;0.00;0.00;;;;;;;10.59;100.00;98239.75;4966749;28;20253;-55
2022/10/01 09:53:30;;;;;;;0.00;0.00;;;;;;;10.59;100.00;98241.56;4967874;28;20521;-57
2022/10/01 09:56:03;;;;;;;0.00;0.00;;;;;;;10.59;100.00;98257.22;4964336;28;20237;-53
2022/10/01 09:58:39;;;;;;;0.00;0.00;;;;;;;10.62;100.00;98238.63;4971686;28;20235;-53
2022/10/01 10:01:17;;;;;;;0.00;0.00;;;;;;;10.66;100.00;98252.19;4945281;28;20272;-56
2022/10/01 10:03:55;;;;;;;0.00;0.00;;;;;;;10.64;100.00;98262.75;4949350;28;20226;-56
2022/10/01 10:06:26;;;;;;;0.00;0.00;;;;;;;10.73;100.00;98267.03;4968827;28;20243;-56
2022/10/01 10:09:01;;;;;;;0.00;0.00;;;;;;;10.77;100.00;98251.88;4965820;28;20262;-57
2022/10/01 10:11:30;;;;;;;0.00;0.00;;;;;;;10.82;100.00;98260.03;4968548;28;20241;-56
2022/10/01 10:13:59;;;;;;;0.00;0.00;;;;;;;10.86;100.00;98247.47;4965508;28;20235;-53
2022/10/01 10:16:28;;;;;;;0.00;0.00;;;;;;;10.90;100.00;98256.59;4967777;28;20238;-55
2022/10/01 10:18:59;;;;;;;0.00;0.00;;;;;;;10.91;100.00;98266.06;4964875;28;20238;-55
2022/10/01 10:21:29;;;;;;;0.00;0.00;;;;;;;10.93;100.00;98264.94;4967827;28;20230;-53
2022/10/01 10:23:57;;;;;;;0.00;0.00;;;;;;;10.97;100.00;98257.59;4965067;28;20292;-56
2022/10/01 10:26:30;;;;;;;0.00;0.00;;;;;;;11.07;100.00;98257.44;4968707;28;20748;-55
2022/10/01 10:28:57;;;;;;;0.00;0.00;;;;;;;11.11;100.00;98266.59;4966019;28;20249;-53
2022/10/01 10:31:26;;;;;;;0.00;0.00;;;;;;;11.13;100.00;98264.59;4968173;28;20298;-57
2022/10/01 10:33:56;;;;;;;0.00;0.00;;;;;;;11.25;100.00;98262.50;4967636;28;20223;-56
2022/10/01 10:36:29;;;;;;;0.00;0.00;;;;;;;11.25;100.00;98254.66;4966948;28;20316;-52
2022/10/01 10:38:56;;;;;;;0.00;0.00;;;;;;;11.25;100.00;98267.72;4965228;28;20241;-55
2022/10/01 10:41:25;;;;;;;0.00;0.00;;;;;;;11.35;100.00;98273.59;4966992;28;20238;-53
2022/10/01 10:43:56;;;;;;;0.00;0.00;;;;;;;11.39;99.96;98270.66;4964138;28;20230;-52
2022/10/01 10:46:30;;;;;;;0.00;0.00;;;;;;;11.30;100.00;98281.09;4967981;28;20250;-56
2022/10/01 10:49:03;;;;;;;0.00;0.00;;;;;;;11.36;100.00;98285.69;4963461;28;20226;-55
2022/10/01 10:51:43;;;;;;;0.00;0.00;;;;;;;11.42;100.00;98289.41;4953293;28;20677;-53
2022/10/01 10:54:18;;;;;;;0.00;0.00;;;;;;;11.48;99.73;98275.69;4964660;28;20227;-55
2022/10/01 10:56:52;;;;;;;0.00;0.00;;;;;;;11.55;97.95;98268.03;4931850;28;20226;-55
2022/10/01 10:59:18;;;;;;;0.00;0.00;;;;;;;11.48;100.00;98280.94;4969388;28;20707;-55
2022/10/01 11:01:48;;;;;;;0.00;0.00;;;;;;;11.63;99.05;98286.31;4967942;28;20619;-53
2022/10/01 11:04:24;;;;;;;0.00;0.00;;;;;;;11.65;97.30;98283.53;4969338;28;20234;-52
2022/10/01 11:06:57;;;;;;;0.00;0.00;;;;;;;11.61;98.48;98277.00;4963048;28;20242;-53
2022/10/01 11:09:30;;;;;;;0.00;0.00;;;;;;;11.74;97.49;98276.47;4968231;28;20238;-54
2022/10/01 11:12:09;;;;;;;0.00;0.00;;;;;;;11.70;97.09;98283.84;4965049;28;20242;-55
2022/10/01 11:14:49;;;;;;;0.00;0.00;;;;;;;11.91;96.84;98285.91;4941442;28;20328;-55
2022/10/01 11:17:29;;;;;;;0.00;0.00;;;;;;;12.12;95.51;98281.16;4965296;28;20249;-52
2022/10/01 11:20:22;;;;;;;0.00;0.00;;;;;;;12.17;94.63;98303.19;4965559;28;20654;-55
2022/10/01 11:23:04;;;;;;;0.00;0.00;;;;;;;12.08;94.73;98305.03;4961854;28;20237;-54
2022/10/01 11:25:42;;;;;;;0.00;0.00;;;;;;;12.24;93.83;98309.38;4970432;28;20293;-57
2022/10/01 11:28:24;;;;;;;0.00;0.00;;;;;;;12.38;91.88;98313.06;4969204;28;20312;-55
2022/10/01 11:30:58;;;;;;;0.00;0.00;;;;;;;12.48;92.11;98310.28;4964130;28;20239;-55
2022/10/01 11:33:33;;;;;;;0.00;0.00;;;;;;;12.58;90.02;98312.66;4967495;28;20796;-56
2022/10/01 11:36:04;;;;;;;0.00;0.00;;;;;;;12.70;90.97;98310.50;4964705;28;20763;-55
2022/10/01 11:38:49;;;;;;;0.00;0.00;;;;;;;12.94;88.76;98306.91;4966989;28;20238;-53
2022/10/01 11:41:23;;;;;;;0.00;0.00;;;;;;;13.20;87.58;98315.41;4965983;28;20240;-55
2022/10/01 11:43:54;;;;;;;0.00;0.00;;;;;;;13.36;89.33;98325.75;4963739;28;20289;-52
2022/10/01 11:46:33;;;;;;;0.00;0.00;;;;;;;13.31;85.49;98312.38;4968672;28;20629;-52
2022/10/01 11:49:04;;;;;;;0.00;0.00;;;;;;;13.24;85.92;98319.28;4965668;28;20248;-55
2022/10/01 11:51:39;;;;;;;0.00;0.00;;;;;;;13.34;86.77;98321.66;4966595;28;20259;-52
2022/10/01 11:54:14;;;;;;;0.00;0.00;;;;;;;13.28;87.54;98318.75;4967054;28;20239;-53
2022/10/01 11:59:37;;;;;;;0.00;0.00;;;;;;;13.31;87.51;98312.38;4963575;28;20379;-52
2022/10/01 12:02:14;;;;;;;0.00;0.00;;;;;;;13.03;89.62;98315.50;4947130;28;20324;-53